Time;durP1;ratioP1;P1;durP2;ratioP2;P2;SDS_P1;SDS_P2;PMS_P1;PMS_P2;Temp;Humidity;BMP_temperature;BMP_pressure;BME280_temperature;BME280_humidity;BME280_pressure;Samples;Min_cycle;Max_cycle;Signal;HPM_P1;HPM_P2
2023/09/14 00:01:15;;;;;;;;;11.50;10.25;;;;;25.31;48.85;101590.94;4918663;28;45376;-42
2023/09/14 00:03:41;;;;;;;;;10.00;8.75;;;;;25.30;49.20;101579.44;4918898;28;45674;-41
2023/09/14 00:06:06;;;;;;;;;9.00;7.75;;;;;25.32;48.87;101576.72;4918221;28;46494;-42
2023/09/14 00:08:31;;;;;;;;;9.75;9.00;;;;;25.32;48.52;101576.72;4918291;28;45338;-40
2023/09/14 00:10:58;;;;;;;;;12.00;10.00;;;;;25.32;48.83;101571.41;4918649;28;45402;-40
2023/09/14 00:13:24;;;;;;;;;7.25;7.00;;;;;25.32;48.75;101572.25;4918545;28;45522;-39
2023/09/14 00:15:50;;;;;;;;;9.75;9.00;;;;;25.31;48.77;101569.69;4918109;28;47051;-41
2023/09/14 00:18:16;;;;;;;;;10.50;8.25;;;;;25.32;48.98;101568.75;4917232;28;45474;-41
2023/09/14 00:20:44;;;;;;;;;9.50;7.25;;;;;25.32;48.72;101572.25;4918536;28;45895;-42
2023/09/14 00:23:10;;;;;;;;;8.00;7.00;;;;;25.31;48.77;101567.88;4901166;28;45614;-45
2023/09/14 00:25:35;;;;;;;;;8.25;6.25;;;;;25.28;48.64;101565.44;4917962;28;46418;-41
2023/09/14 00:28:00;;;;;;;;;12.00;9.25;;;;;25.29;48.86;101571.59;4917958;28;45375;-39
2023/09/14 00:30:26;;;;;;;;;13.00;7.50;;;;;25.27;48.96;101560.22;4918187;28;45411;-41
2023/09/14 00:32:52;;;;;;;;;10.00;8.25;;;;;25.27;48.58;101571.72;4921653;28;45320;-40
2023/09/14 00:35:18;;;;;;;;;8.00;7.00;;;;;25.28;48.47;101573.41;4921193;28;46252;-42
2023/09/14 00:37:44;;;;;;;;;8.25;7.25;;;;;25.28;48.77;101575.19;4921527;28;45718;-39
2023/09/14 00:40:11;;;;;;;;;13.25;8.25;;;;;25.28;48.68;101573.41;4921187;28;45491;-38
2023/09/14 00:42:48;;;;;;;;;7.25;7.00;;;;;25.29;48.91;101577.78;4921425;28;45565;-42
2023/09/14 00:45:15;;;;;;;;;8.25;8.00;;;;;25.29;49.09;101577.78;4921440;28;46272;-41
2023/09/14 00:47:44;;;;;;;;;9.00;6.50;;;;;25.30;48.62;101576.78;4920034;28;45217;-43
2023/09/14 00:50:10;;;;;;;;;8.00;8.00;;;;;25.30;48.82;101570.66;4921158;28;45386;-42
2023/09/14 00:52:37;;;;;;;;;7.25;7.25;;;;;25.30;48.45;101568.00;4921302;28;45362;-42
2023/09/14 00:55:05;;;;;;;;;8.00;7.25;;;;;25.29;49.04;101577.78;4920999;28;47343;-40
2023/09/14 00:57:32;;;;;;;;;8.75;7.00;;;;;25.29;49.04;101572.47;4920858;28;45789;-40
2023/09/14 01:00:05;;;;;;;;;10.25;9.00;;;;;25.28;48.96;101567.25;4921101;28;45420;-41
2023/09/14 01:02:32;;;;;;;;;7.00;7.00;;;;;25.30;49.03;101570.66;4921218;28;45363;-39
2023/09/14 01:05:00;;;;;;;;;8.50;7.25;;;;;25.29;48.91;101572.47;4920709;28;46689;-43
2023/09/14 01:07:26;;;;;;;;;10.75;8.00;;;;;25.29;48.88;101568.94;4920740;28;45817;-42
2023/09/14 01:09:51;;;;;;;;;8.00;7.00;;;;;25.29;48.70;101564.50;4920811;28;45313;-42
2023/09/14 01:12:18;;;;;;;;;9.25;7.00;;;;;25.28;48.85;101569.91;4921369;28;45332;-43
2023/09/14 01:14:57;;;;;;;;;8.50;8.50;;;;;25.27;48.62;101574.38;4920575;28;46196;-42
2023/09/14 01:17:40;;;;;;;;;10.25;7.25;;;;;25.29;49.17;101579.56;4920701;28;45739;-42
2023/09/14 01:20:14;;;;;;;;;8.25;7.00;;;;;25.29;48.91;101576.91;4920878;28;45319;-42
2023/09/14 01:22:51;;;;;;;;;9.75;7.50;;;;;25.28;49.04;101583.16;4920974;28;45373;-38
2023/09/14 01:25:40;;;;;;;;;7.00;7.00;;;;;25.29;49.11;101583.06;4920928;28;46585;-38
2023/09/14 01:28:11;;;;;;;;;8.25;7.00;;;;;25.28;48.83;101580.50;4920543;28;45857;-42
2023/09/14 01:30:37;;;;;;;;;11.00;9.00;;;;;25.27;49.19;101584.09;4919325;28;45326;-41
2023/09/14 01:33:05;;;;;;;;;7.75;7.75;;;;;25.27;49.22;101578.78;4920704;28;45535;-40
2023/09/14 01:35:35;;;;;;;;;9.50;9.00;;;;;25.25;48.94;101570.94;4919147;28;46321;-42
2023/09/14 01:38:01;;;;;;;;;7.00;7.00;;;;;25.25;49.14;101576.25;4920419;28;45694;-41
2023/09/14 01:40:27;;;;;;;;;9.75;8.00;;;;;25.25;48.47;101573.59;4920376;28;45349;-38
2023/09/14 01:42:54;;;;;;;;;9.25;7.25;;;;;25.23;48.90;101572.84;4919855;28;45395;-41
2023/09/14 01:45:20;;;;;;;;;9.00;7.75;;;;;25.23;49.09;101570.19;4920343;28;45492;-43
2023/09/14 01:47:46;;;;;;;;;6.00;6.00;;;;;25.23;48.80;101572.84;4919063;28;45456;-41
2023/09/14 01:50:12;;;;;;;;;7.25;7.25;;;;;25.24;48.96;101571.06;4920265;28;45390;-41
2023/09/14 01:52:37;;;;;;;;;11.75;7.00;;;;;25.23;48.86;101572.84;4920460;28;45288;-40
2023/09/14 01:55:03;;;;;;;;;8.75;7.50;;;;;25.23;48.80;101572.84;4920108;28;46469;-41
2023/09/14 01:57:28;;;;;;;;;8.50;8.50;;;;;25.22;48.87;101570.31;4920209;28;45245;-40
2023/09/14 01:59:54;;;;;;;;;7.25;7.25;;;;;25.24;48.80;101574.56;4920059;28;45180;-40
2023/09/14 02:02:23;;;;;;;;;8.00;8.00;;;;;25.23;48.75;101572.00;4920033;28;54852;-44
2023/09/14 02:04:48;;;;;;;;;7.25;7.25;;;;;25.24;49.09;101571.06;4920293;28;47391;-42
2023/09/14 02:07:13;;;;;;;;;8.00;6.00;;;;;25.24;49.11;101574.56;4920074;28;45410;-38
2023/09/14 02:09:39;;;;;;;;;9.75;9.75;;;;;25.24;49.05;101568.41;4920009;28;45442;-42
2023/09/14 02:12:04;;;;;;;;;9.00;8.50;;;;;25.23;49.11;101575.50;4920163;28;45730;-39
2023/09/14 02:14:30;;;;;;;;;9.25;7.50;;;;;25.24;49.18;101574.56;4919628;28;45506;-38
2023/09/14 02:16:55;;;;;;;;;6.50;4.25;;;;;25.25;48.81;101583.34;4902357;28;52127;-38
2023/09/14 02:19:20;;;;;;;;;8.50;7.00;;;;;25.24;48.94;101569.25;4920187;28;45327;-40
2023/09/14 02:21:45;;;;;;;;;10.00;7.50;;;;;25.23;49.13;101575.50;4919439;28;52038;-39
2023/09/14 02:24:11;;;;;;;;;11.00;9.50;;;;;25.23;49.11;101572.00;4919526;28;46433;-40
2023/09/14 02:26:36;;;;;;;;;6.50;6.00;;;;;25.22;49.54;101575.59;4919050;28;60832;-38
2023/09/14 02:29:01;;;;;;;;;8.25;7.50;;;;;25.21;49.25;101556.16;4919725;28;45457;-38
2023/09/14 02:31:27;;;;;;;;;13.25;8.00;;;;;25.22;49.09;101568.47;4919165;28;54640;-40
2023/09/14 02:33:52;;;;;;;;;8.75;7.50;;;;;25.21;48.74;101569.44;4919700;28;46518;-42
2023/09/14 02:36:17;;;;;;;;;9.00;8.50;;;;;25.19;49.11;101566.03;4919238;28;46250;-42
2023/09/14 02:38:44;;;;;;;;;8.50;6.25;;;;;25.19;49.08;101562.53;4918822;28;56047;-41
2023/09/14 02:41:09;;;;;;;;;11.00;8.00;;;;;25.16;49.11;101556.47;4919808;28;45308;-38
2023/09/14 02:43:35;;;;;;;;;7.75;7.75;;;;;25.15;48.92;101557.41;4919203;28;45359;-39
2023/09/14 02:46:00;;;;;;;;;8.25;8.25;;;;;25.14;49.60;101560.16;4919014;28;50927;-40
2023/09/14 02:48:25;;;;;;;;;10.50;7.75;;;;;25.09;49.02;101556.94;4919452;28;45273;-38
2023/09/14 02:50:50;;;;;;;;;8.00;8.00;;;;;25.09;49.72;101560.47;4919636;28;45412;-42
2023/09/14 02:53:16;;;;;;;;;8.75;8.00;;;;;25.09;49.42;101557.81;4918744;28;62038;-40
2023/09/14 02:55:41;;;;;;;;;10.25;8.75;;;;;25.10;49.09;101562.19;4916172;28;63755;-37
2023/09/14 02:58:10;;;;;;;;;8.75;7.75;;;;;25.10;49.52;101556.88;4919175;28;45238;-43
2023/09/14 03:00:39;;;;;;;;;10.00;8.00;;;;;25.11;49.32;101555.91;4919449;28;45569;-43
2023/09/14 03:03:05;;;;;;;;;10.00;9.00;;;;;25.11;49.12;101560.34;4919033;28;45582;-41
2023/09/14 03:05:30;;;;;;;;;7.50;7.00;;;;;25.11;49.31;101552.41;4919152;28;45340;-42
2023/09/14 03:07:56;;;;;;;;;10.00;8.00;;;;;25.13;49.36;101550.50;4919611;28;45365;-40
2023/09/14 03:10:21;;;;;;;;;11.00;7.00;;;;;25.12;49.37;101541.72;4919714;28;45466;-41
2023/09/14 03:12:46;;;;;;;;;10.00;8.75;;;;;25.11;49.13;101553.28;4918996;28;46376;-40
2023/09/14 03:15:12;;;;;;;;;8.75;8.75;;;;;25.11;49.63;101549.75;4917552;28;45260;-42
2023/09/14 03:17:37;;;;;;;;;12.00;9.00;;;;;25.10;49.53;101545.38;4919013;28;45407;-37
2023/09/14 03:20:06;;;;;;;;;10.75;9.75;;;;;25.09;49.83;101543.69;4918553;28;50691;-39
2023/09/14 03:22:32;;;;;;;;;11.25;8.00;;;;;25.09;49.87;101551.63;4918785;28;46752;-37
2023/09/14 03:25:00;;;;;;;;;8.00;8.00;;;;;25.09;49.45;101546.34;4919046;28;45735;-41
2023/09/14 03:27:25;;;;;;;;;13.00;8.25;;;;;25.08;49.57;101539.34;4919069;28;45234;-38
2023/09/14 03:29:51;;;;;;;;;9.25;8.00;;;;;25.10;49.16;101548.03;4918802;28;45621;-42
2023/09/14 03:32:16;;;;;;;;;9.50;9.50;;;;;25.09;49.29;101544.56;4918536;28;45338;-38
2023/09/14 03:34:41;;;;;;;;;8.75;8.75;;;;;25.10;49.28;101540.09;4918634;28;45245;-40
2023/09/14 03:37:07;;;;;;;;;9.00;8.25;;;;;25.09;49.60;101544.56;4918656;28;45257;-39
2023/09/14 03:39:32;;;;;;;;;9.25;9.25;;;;;25.10;49.81;101542.75;4918813;28;45484;-38
2023/09/14 03:41:58;;;;;;;;;9.75;8.75;;;;;25.08;49.81;101540.19;4918640;28;46335;-38
2023/09/14 03:44:23;;;;;;;;;9.25;8.25;;;;;25.09;49.22;101538.38;4919164;28;45454;-41
2023/09/14 03:46:49;;;;;;;;;11.25;8.25;;;;;25.09;49.47;101538.38;4918701;28;45356;-39
2023/09/14 03:49:15;;;;;;;;;9.75;8.50;;;;;25.10;49.56;101537.44;4918731;28;45400;-41
2023/09/14 03:51:40;;;;;;;;;9.00;8.00;;;;;25.09;49.77;101533.06;4917687;28;68520;-41
2023/09/14 03:54:05;;;;;;;;;10.25;10.25;;;;;25.10;49.16;101534.78;4901342;28;46171;-39
2023/09/14 03:56:31;;;;;;;;;12.00;11.25;;;;;25.08;49.61;101532.25;4918514;28;45462;-37
2023/09/14 03:58:56;;;;;;;;;8.25;8.00;;;;;25.09;49.79;101533.94;4901880;28;45387;-36
2023/09/14 04:01:21;;;;;;;;;9.75;8.00;;;;;25.09;49.40;101533.94;4918397;28;45508;-40
2023/09/14 04:03:47;;;;;;;;;9.25;7.25;;;;;25.10;49.71;101530.34;4918040;28;53859;-42
2023/09/14 04:06:12;;;;;;;;;9.50;7.25;;;;;25.12;49.32;101532.88;4918476;28;45495;-39
2023/09/14 04:08:37;;;;;;;;;10.00;7.00;;;;;25.14;49.76;101523.03;4922082;28;45554;-38
2023/09/14 04:11:02;;;;;;;;;9.75;9.75;;;;;25.14;49.56;101528.34;4921392;28;54785;-42
2023/09/14 04:13:31;;;;;;;;;6.00;5.75;;;;;25.09;49.60;101523.34;4920889;28;45339;-38
2023/09/14 04:15:58;;;;;;;;;11.75;10.75;;;;;25.05;49.69;101526.28;4922250;28;45271;-44
2023/09/14 04:18:24;;;;;;;;;13.50;11.75;;;;;24.96;50.07;101520.63;4921893;28;45461;-39
2023/09/14 04:20:50;;;;;;;;;11.00;8.25;;;;;24.88;49.51;101520.25;4921509;28;46751;-39
2023/09/14 04:23:16;;;;;;;;;12.75;10.00;;;;;24.85;49.91;101528.41;4921379;28;45821;-40
2023/09/14 04:25:44;;;;;;;;;14.25;11.50;;;;;24.81;49.95;101527.72;4921603;28;45398;-37
2023/09/14 04:28:14;;;;;;;;;15.75;13.00;;;;;24.76;50.00;101524.53;4921801;28;45238;-41
2023/09/14 04:30:43;;;;;;;;;13.75;10.75;;;;;24.71;50.25;101523.94;4921320;28;45485;-41
2023/09/14 04:33:09;;;;;;;;;11.75;11.00;;;;;24.67;50.65;101527.72;4920049;28;45655;-44
2023/09/14 04:35:34;;;;;;;;;13.00;11.50;;;;;24.64;50.22;101528.75;4921494;28;45204;-41
2023/09/14 04:38:00;;;;;;;;;9.25;9.25;;;;;24.59;50.68;101528.19;4921346;28;51751;-38
2023/09/14 04:40:25;;;;;;;;;14.67;11.00;;;;;24.56;50.70;101525.72;4920274;28;68662;-41
2023/09/14 04:42:50;;;;;;;;;16.00;13.50;;;;;24.53;50.56;101523.25;4921058;28;47506;-44
2023/09/14 04:45:16;;;;;;;;;11.50;11.00;;;;;24.51;50.21;101525.19;4921337;28;45182;-40
2023/09/14 04:47:41;;;;;;;;;11.75;11.25;;;;;24.49;51.08;101532.38;4921163;28;45514;-41
2023/09/14 04:50:07;;;;;;;;;11.50;11.50;;;;;24.47;51.00;101527.16;4920642;28;60604;-44
2023/09/14 04:52:32;;;;;;;;;13.00;9.75;;;;;24.45;50.70;101533.47;4921345;28;45340;-41
2023/09/14 04:54:58;;;;;;;;;5.75;4.00;;;;;24.44;50.51;101534.44;4921417;28;45387;-42
2023/09/14 04:57:24;;;;;;;;;11.75;11.75;;;;;24.43;50.88;101535.38;4921334;28;45479;-40
2023/09/14 04:59:50;;;;;;;;;10.00;8.75;;;;;24.36;51.13;101529.63;4903780;28;47401;-40
2023/09/14 05:02:15;;;;;;;;;10.75;10.75;;;;;24.35;51.21;101534.06;4920900;28;45379;-39
2023/09/14 05:04:40;;;;;;;;;12.00;10.00;;;;;24.33;51.16;101530.63;4920999;28;45359;-41
2023/09/14 05:07:06;;;;;;;;;10.50;10.50;;;;;24.32;50.90;101536.03;4921214;28;45372;-40
2023/09/14 05:09:31;;;;;;;;;12.25;11.00;;;;;24.28;51.17;101535.38;4920572;28;56841;-43
2023/09/14 05:11:56;;;;;;;;;14.00;13.25;;;;;24.26;50.82;101542.56;4920716;28;45268;-39
2023/09/14 05:14:22;;;;;;;;;9.50;7.50;;;;;24.24;50.69;101544.44;4919649;28;45339;-38
2023/09/14 05:16:47;;;;;;;;;13.75;11.25;;;;;24.24;51.11;101547.09;4920907;28;45378;-40
2023/09/14 05:19:12;;;;;;;;;14.75;11.00;;;;;24.22;50.83;101555.13;4919750;28;45361;-41
2023/09/14 05:21:38;;;;;;;;;17.50;13.00;;;;;24.20;50.91;101542.91;4920392;28;51054;-43
2023/09/14 05:24:04;;;;;;;;;9.25;8.00;;;;;24.18;51.33;101548.31;4920826;28;45399;-41
2023/09/14 05:26:29;;;;;;;;;15.50;9.75;;;;;24.19;51.45;101554.47;4921090;28;45222;-40
2023/09/14 05:28:55;;;;;;;;;13.50;12.25;;;;;24.17;50.96;101549.25;4920560;28;45562;-38
2023/09/14 05:31:20;;;;;;;;;16.25;11.50;;;;;24.15;51.46;101548.47;4920398;28;45263;-43
2023/09/14 05:33:45;;;;;;;;;15.00;13.00;;;;;24.12;50.79;101547.81;4920648;28;45271;-40
2023/09/14 05:36:11;;;;;;;;;14.25;12.50;;;;;24.09;50.96;101554.16;4920658;28;45610;-43
2023/09/14 05:38:36;;;;;;;;;16.75;11.50;;;;;24.07;51.56;101548.09;4903066;28;47931;-43
2023/09/14 05:41:03;;;;;;;;;13.00;13.00;;;;;24.03;51.53;101550.09;4920298;28;59314;-43
2023/09/14 05:43:28;;;;;;;;;10.00;10.00;;;;;24.01;51.06;101554.59;4919133;28;45429;-43
2023/09/14 05:45:54;;;;;;;;;13.25;12.00;;;;;23.99;51.02;101553.84;4920533;28;45293;-39
2023/09/14 05:48:19;;;;;;;;;12.25;11.75;;;;;23.97;51.51;101555.75;4920196;28;45603;-40
2023/09/14 05:50:45;;;;;;;;;14.00;12.00;;;;;23.94;51.55;101561.19;4920110;28;45374;-42
2023/09/14 05:53:10;;;;;;;;;14.25;12.00;;;;;23.94;51.85;101561.19;4920171;28;45291;-39
2023/09/14 05:55:35;;;;;;;;;13.75;12.25;;;;;23.93;51.16;101562.13;4920557;28;45449;-37
2023/09/14 05:58:01;;;;;;;;;13.00;12.00;;;;;23.92;51.76;101563.06;4919847;28;50851;-40
2023/09/14 06:00:26;;;;;;;;;17.50;13.00;;;;;23.92;51.31;101563.06;4919955;28;45493;-39
2023/09/14 06:02:52;;;;;;;;;13.00;11.75;;;;;23.91;51.79;101564.00;4919984;28;45475;-41
2023/09/14 06:05:18;;;;;;;;;17.00;13.25;;;;;23.91;51.40;101564.88;4920171;28;45573;-39
2023/09/14 06:07:44;;;;;;;;;17.00;15.50;;;;;23.91;51.51;101572.81;4902577;28;48249;-37
2023/09/14 06:10:09;;;;;;;;;18.00;14.00;;;;;23.92;52.03;101568.34;4902614;28;45361;-37
2023/09/14 06:12:35;;;;;;;;;16.75;15.00;;;;;23.92;51.62;101569.19;4920305;28;45361;-41
2023/09/14 06:15:00;;;;;;;;;13.50;12.00;;;;;23.92;51.37;101576.31;4919887;28;45508;-42
2023/09/14 06:17:25;;;;;;;;;15.00;12.50;;;;;23.92;51.47;101578.94;4919576;28;45552;-39
2023/09/14 06:19:51;;;;;;;;;10.25;4.50;;;;;23.92;52.02;101573.66;4919799;28;45217;-39
2023/09/14 06:22:16;;;;;;;;;13.25;11.25;;;;;23.92;51.36;101571.00;4902590;28;45307;-42
2023/09/14 06:24:42;;;;;;;;;20.25;14.75;;;;;23.92;52.26;101571.00;4919894;28;45260;-39
2023/09/14 06:27:08;;;;;;;;;16.00;15.50;;;;;23.94;51.56;101574.44;4919895;28;46403;-39
2023/09/14 06:29:33;;;;;;;;;12.75;10.00;;;;;23.95;51.60;101578.81;4919598;28;45375;-41
2023/09/14 06:31:58;;;;;;;;;14.50;13.25;;;;;23.94;52.06;101571.78;4919675;28;45405;-43
2023/09/14 06:34:23;;;;;;;;;15.50;15.00;;;;;23.95;51.58;101576.16;4919482;28;45568;-36
2023/09/14 06:36:49;;;;;;;;;15.00;10.67;;;;;23.94;51.45;101577.06;4918688;28;65987;-40
2023/09/14 06:39:14;;;;;;;;;13.75;12.75;;;;;23.93;51.99;101564.78;4918779;28;55069;-40
2023/09/14 06:41:39;;;;;;;;;18.25;14.00;;;;;23.95;51.75;101570.88;4919560;28;45424;-41
2023/09/14 06:44:05;;;;;;;;;15.25;12.25;;;;;23.94;52.01;101575.25;4920163;28;45509;-40
2023/09/14 06:46:31;;;;;;;;;13.25;12.25;;;;;23.96;51.66;101574.34;4919335;28;46240;-39
2023/09/14 06:48:56;;;;;;;;;15.50;12.00;;;;;23.97;51.60;101576.06;4919235;28;45271;-41
2023/09/14 06:51:21;;;;;;;;;11.50;11.00;;;;;23.97;51.89;101579.59;4919341;28;45438;-39
2023/09/14 06:53:47;;;;;;;;;11.75;10.25;;;;;24.00;51.81;101586.47;4919280;28;45331;-37
2023/09/14 06:56:13;;;;;;;;;12.25;11.00;;;;;23.99;51.33;101584.78;4919045;28;45417;-43
2023/09/14 06:58:38;;;;;;;;;13.25;12.00;;;;;23.96;51.54;101583.16;4919373;28;45757;-44
2023/09/14 07:01:05;;;;;;;;;19.00;16.00;;;;;23.93;51.37;101585.94;4919287;28;45429;-38
2023/09/14 07:03:32;;;;;;;;;16.50;14.25;;;;;23.90;51.62;101581.69;4919485;28;45217;-38
2023/09/14 07:05:58;;;;;;;;;23.00;18.75;;;;;23.89;51.83;101589.72;4918888;28;46296;-38
2023/09/14 07:08:23;;;;;;;;;16.00;16.00;;;;;23.88;52.12;101590.66;4918794;28;45427;-39
2023/09/14 07:10:49;;;;;;;;;20.75;19.00;;;;;23.86;52.23;101590.75;4902131;28;45441;-41
2023/09/14 07:13:14;;;;;;;;;16.25;14.75;;;;;23.87;51.85;101588.94;4919158;28;45654;-40
2023/09/14 07:15:40;;;;;;;;;17.75;16.75;;;;;23.85;51.91;101588.19;4917632;28;47451;-38
2023/09/14 07:18:05;;;;;;;;;21.75;18.75;;;;;23.87;51.65;101586.28;4917894;28;45397;-39
2023/09/14 07:20:31;;;;;;;;;21.25;19.50;;;;;23.83;52.59;101582.13;4918873;28;45308;-40
2023/09/14 07:22:57;;;;;;;;;20.75;19.00;;;;;23.84;51.99;101583.84;4919079;28;45216;-38
2023/09/14 07:25:23;;;;;;;;;23.00;19.00;;;;;23.83;52.01;101590.06;4917370;28;45408;-43
2023/09/14 07:27:48;;;;;;;;;20.25;16.75;;;;;23.83;52.30;101585.63;4918733;28;45261;-43
2023/09/14 07:30:14;;;;;;;;;16.25;14.50;;;;;23.83;52.44;101584.78;4901747;28;45366;-44
2023/09/14 07:32:40;;;;;;;;;18.25;15.00;;;;;23.86;52.10;101584.63;4919279;28;45233;-39
2023/09/14 07:35:07;;;;;;;;;20.50;17.25;;;;;23.94;52.04;101595.59;4918586;28;46539;-42
2023/09/14 07:37:33;;;;;;;;;20.00;17.00;;;;;23.98;52.03;101589.19;4918569;28;45347;-38
2023/09/14 07:39:58;;;;;;;;;11.50;11.50;;;;;23.96;52.10;101591.13;4918411;28;45502;-42
2023/09/14 07:42:24;;;;;;;;;19.00;16.67;;;;;23.98;52.36;101586.56;4921209;28;50497;-45
2023/09/14 07:44:49;;;;;;;;;20.00;16.00;;;;;24.02;52.05;101595.19;4921250;28;62303;-37
2023/09/14 07:47:14;;;;;;;;;23.75;19.75;;;;;24.03;51.55;101596.91;4904398;28;54901;-41
2023/09/14 07:49:43;;;;;;;;;20.00;16.00;;;;;24.01;51.62;101593.50;4920929;28;48945;-38
2023/09/14 07:52:09;;;;;;;;;17.25;14.00;;;;;24.02;51.66;101581.97;4922414;28;45261;-40
2023/09/14 07:54:34;;;;;;;;;15.50;12.75;;;;;24.04;51.62;101591.50;4921328;28;57981;-41
2023/09/14 07:57:00;;;;;;;;;18.25;14.75;;;;;24.05;51.51;101587.91;4921514;28;45312;-38
2023/09/14 07:59:27;;;;;;;;;14.00;13.00;;;;;24.09;51.46;101596.53;4921929;28;45757;-40
2023/09/14 08:01:52;;;;;;;;;20.00;17.00;;;;;24.09;51.81;101600.03;4922153;28;45636;-40
2023/09/14 08:04:18;;;;;;;;;20.50;17.25;;;;;24.09;51.49;101596.53;4921742;28;46496;-40
2023/09/14 08:06:43;;;;;;;;;14.00;13.00;;;;;24.08;51.52;101605.41;4921742;28;45865;-42
2023/09/14 08:09:09;;;;;;;;;13.75;13.00;;;;;24.07;51.33;101604.56;4922274;28;45557;-42
2023/09/14 08:11:36;;;;;;;;;14.25;10.50;;;;;24.08;50.74;101600.13;4921802;28;45477;-41
2023/09/14 08:14:01;;;;;;;;;11.75;11.00;;;;;24.09;51.04;101605.31;4904277;28;48032;-41
2023/09/14 08:16:30;;;;;;;;;17.50;14.75;;;;;24.11;50.77;101609.69;4921592;28;45456;-42
2023/09/14 08:18:56;;;;;;;;;17.50;15.25;;;;;24.07;50.75;101609.88;4921754;28;45305;-41
2023/09/14 08:21:21;;;;;;;;;16.25;15.25;;;;;24.05;51.14;101610.88;4921938;28;45595;-43
2023/09/14 08:23:47;;;;;;;;;16.67;15.67;;;;;24.05;50.93;101617.06;4903725;28;62585;-45
2023/09/14 08:26:12;;;;;;;;;15.50;13.00;;;;;24.05;51.10;101621.47;4921540;28;52910;-43
2023/09/14 08:28:37;;;;;;;;;18.25;15.25;;;;;24.06;51.06;101623.19;4921630;28;45364;-40
2023/09/14 08:31:02;;;;;;;;;15.50;15.00;;;;;24.04;51.22;101615.34;4903935;28;46801;-46
2023/09/14 08:33:28;;;;;;;;;19.75;16.00;;;;;24.04;50.61;101615.34;4921047;28;46059;-41
2023/09/14 08:35:54;;;;;;;;;19.25;13.50;;;;;24.06;50.91;101618.75;4921190;28;45485;-40
2023/09/14 08:38:19;;;;;;;;;14.00;9.25;;;;;24.06;50.67;101616.13;4921363;28;45393;-38
2023/09/14 08:40:46;;;;;;;;;14.50;11.75;;;;;24.05;50.88;101617.06;4921856;28;45413;-39
2023/09/14 08:43:12;;;;;;;;;19.00;17.00;;;;;24.05;51.20;101622.34;4921400;28;47454;-43
2023/09/14 08:45:38;;;;;;;;;19.50;16.75;;;;;24.04;51.09;101622.41;4921215;28;45337;-43
2023/09/14 08:48:05;;;;;;;;;15.25;13.25;;;;;24.03;51.16;101623.38;4921155;28;45231;-43
2023/09/14 08:50:32;;;;;;;;;14.75;13.00;;;;;24.00;50.78;101620.91;4921312;28;45670;-40
2023/09/14 08:52:58;;;;;;;;;16.50;14.25;;;;;23.99;50.62;101621.84;4920726;28;46606;-43
2023/09/14 08:55:33;;;;;;;;;17.00;13.75;;;;;23.97;50.67;101627.25;4920954;28;45904;-41
2023/09/14 08:57:58;;;;;;;;;15.25;14.75;;;;;23.94;50.81;101628.22;4921107;28;45329;-43
2023/09/14 09:00:28;;;;;;;;;16.75;13.25;;;;;23.92;50.95;101621.31;4921176;28;45565;-39
2023/09/14 09:02:56;;;;;;;;;14.75;11.25;;;;;23.89;50.57;101619.69;4920833;28;47178;-44
2023/09/14 09:05:24;;;;;;;;;13.75;12.25;;;;;23.88;50.91;101617.13;4903867;28;45560;-42
2023/09/14 09:07:50;;;;;;;;;12.00;11.00;;;;;23.88;50.98;101619.78;4921011;28;45474;-42
2023/09/14 09:10:16;;;;;;;;;10.25;8.75;;;;;23.88;50.80;101627.72;4921471;28;45463;-40
2023/09/14 09:12:42;;;;;;;;;7.75;7.25;;;;;23.87;50.16;101621.56;4921104;28;46255;-41
2023/09/14 09:15:09;;;;;;;;;10.50;7.75;;;;;23.86;50.48;101622.50;4920777;28;45438;-39
2023/09/14 09:17:39;;;;;;;;;8.00;8.00;;;;;23.86;50.20;101621.69;4920910;28;45353;-38
2023/09/14 09:20:16;;;;;;;;;10.75;7.25;;;;;23.86;50.66;101619.03;4920952;28;45397;-38
2023/09/14 09:22:45;;;;;;;;;10.25;8.75;;;;;23.86;50.58;101621.69;4920721;28;46301;-40
2023/09/14 09:25:11;;;;;;;;;9.00;9.00;;;;;23.86;50.68;101619.03;4920659;28;45258;-44
2023/09/14 09:27:39;;;;;;;;;10.00;8.75;;;;;23.88;50.37;101620.63;4920712;28;45392;-44
2023/09/14 09:30:05;;;;;;;;;10.25;8.75;;;;;23.90;50.76;101617.88;4920901;28;45268;-40
2023/09/14 09:32:31;;;;;;;;;9.50;9.00;;;;;23.90;50.63;101623.19;4920333;28;47683;-36
2023/09/14 09:35:14;;;;;;;;;9.50;8.25;;;;;23.91;50.52;101620.47;4920349;28;45295;-37
2023/09/14 09:37:39;;;;;;;;;13.25;11.50;;;;;23.91;50.13;101619.59;4920764;28;45449;-38
2023/09/14 09:40:11;;;;;;;;;14.50;11.50;;;;;23.92;50.77;101613.38;4920565;28;45409;-40
2023/09/14 09:42:36;;;;;;;;;12.25;10.00;;;;;23.90;50.65;101618.75;4920241;28;45460;-41
2023/09/14 09:45:03;;;;;;;;;12.50;10.75;;;;;23.89;50.90;101624.13;4920218;28;45343;-38
2023/09/14 09:47:32;;;;;;;;;15.50;11.75;;;;;23.87;50.14;101618.06;4920470;28;45423;-37
2023/09/14 09:49:57;;;;;;;;;16.00;12.50;;;;;23.85;50.76;101619.97;4920533;28;45309;-37
2023/09/14 09:52:23;;;;;;;;;15.50;13.00;;;;;23.84;50.47;101612.97;4920017;28;52623;-43
2023/09/14 09:54:49;;;;;;;;;13.50;13.00;;;;;23.84;50.48;101612.97;4920388;28;45400;-41
2023/09/14 09:57:15;;;;;;;;;14.00;13.75;;;;;23.84;50.52;101612.97;4920507;28;45801;-42
2023/09/14 09:59:41;;;;;;;;;15.50;12.75;;;;;23.86;50.95;101613.72;4920481;28;45530;-39
2023/09/14 10:02:09;;;;;;;;;13.75;10.75;;;;;23.86;50.85;101611.09;4920071;28;45369;-38
2023/09/14 10:04:34;;;;;;;;;13.00;10.75;;;;;23.85;50.40;101604.91;4919512;28;45396;-42
2023/09/14 10:07:04;;;;;;;;;10.50;8.50;;;;;23.85;51.05;101612.03;4903035;28;45321;-44
2023/09/14 10:09:34;;;;;;;;;11.00;10.50;;;;;23.87;50.99;101610.13;4920207;28;45595;-42
2023/09/14 10:12:03;;;;;;;;;10.75;8.75;;;;;23.90;50.53;101607.31;4919775;28;45678;-40
2023/09/14 10:14:32;;;;;;;;;12.25;10.00;;;;;23.91;50.64;101609.88;4919686;28;45408;-42
2023/09/14 10:17:03;;;;;;;;;11.50;10.75;;;;;23.93;50.95;101607.13;4919951;28;45314;-37
2023/09/14 10:19:29;;;;;;;;;10.75;9.50;;;;;23.96;50.63;101608.78;4920036;28;45197;-40
2023/09/14 10:21:56;;;;;;;;;10.50;9.00;;;;;23.96;50.74;101599.06;4919646;28;45463;-46
2023/09/14 10:24:22;;;;;;;;;10.00;8.00;;;;;23.94;50.31;101590.31;4919746;28;45701;-41
2023/09/14 10:26:50;;;;;;;;;10.00;6.00;;;;;23.99;50.28;101598.00;4920069;28;45520;-37
2023/09/14 10:29:15;;;;;;;;;9.50;7.00;;;;;24.03;50.29;101603.03;4919865;28;45446;-38
2023/09/14 10:31:45;;;;;;;;;7.75;7.00;;;;;24.06;50.41;101596.72;4919408;28;45363;-42
2023/09/14 10:34:13;;;;;;;;;10.25;8.75;;;;;24.07;49.96;101596.63;4918042;28;45671;-40
2023/09/14 10:36:40;;;;;;;;;9.75;7.50;;;;;24.07;50.55;101587.81;4919618;28;45526;-38
2023/09/14 10:39:07;;;;;;;;;9.25;8.00;;;;;24.08;50.26;101589.53;4919619;28;45543;-43
2023/09/14 10:41:32;;;;;;;;;10.00;9.00;;;;;24.07;49.97;101583.41;4919430;28;46106;-38
2023/09/14 10:43:58;;;;;;;;;9.00;8.00;;;;;24.05;49.90;101579.97;4919311;28;45450;-38
2023/09/14 10:46:36;;;;;;;;;9.25;7.25;;;;;24.07;50.16;101578.09;4919477;28;45449;-40
2023/09/14 10:49:02;;;;;;;;;7.25;4.50;;;;;24.07;49.49;101572.81;4919429;28;45424;-37
2023/09/14 10:51:28;;;;;;;;;6.00;5.75;;;;;24.11;50.01;101562.88;4917957;28;48202;-43
2023/09/14 10:53:54;;;;;;;;;5.75;5.25;;;;;24.14;50.08;101562.69;4919217;28;45788;-37
2023/09/14 10:56:30;;;;;;;;;6.25;6.25;;;;;24.18;49.74;101558.06;4919737;28;45350;-37
2023/09/14 10:58:57;;;;;;;;;6.75;5.50;;;;;24.20;49.79;101556.16;4919453;28;45482;-37
2023/09/14 11:01:24;;;;;;;;;6.25;6.00;;;;;24.25;49.84;101554.09;4919553;28;46136;-41
2023/09/14 11:04:15;;;;;;;;;9.25;5.00;;;;;24.28;49.55;101556.56;4919220;28;45897;-39
2023/09/14 11:06:51;;;;;;;;;5.25;5.00;;;;;24.31;49.15;101552.88;4919189;28;45418;-40
2023/09/14 11:09:19;;;;;;;;;4.25;4.25;;;;;24.32;48.82;101547.47;4919298;28;45596;-38
2023/09/14 11:11:47;;;;;;;;;4.00;4.00;;;;;24.35;47.81;101543.81;4901833;28;47523;-37
2023/09/14 11:14:14;;;;;;;;;7.50;5.00;;;;;24.36;48.31;101546.34;4919107;28;45812;-38